Terminal Aerodrome Forecast
Issued by NWS Quad Cities IA IL

Home | Current Version | Previous Version | Text Only | Print | Product List | Glossary On
Versions: 1 2 3 4 5 6 7 8 9 10 11 12 13 14 15 16 17 18 19 20 21 22 23 24 25 26 27 28 29
917
FTUS43 KDVN 080757 AAB
TAFDBQ
TAF AMD
KDBQ 080757Z 0808/0906 31015G24KT P6SM VCSH SCT025 BKN040
      TEMPO 0808/0811 2SM -SN BR SCT009 OVC018
     FM081100 31017G26KT 3SM -SN BKN009 OVC015
     FM081500 32018G28KT 3SM -SHSN OVC015=

USA.gov is the U.S. government's official web portal to all federal, state and local government web resources and services.